sensor_id;sensor_type;location;lat;lon;timestamp;P1;durP1;ratioP1;P2;durP2;ratioP2
72711;SDS011;60828;40.292;17.998;2022-12-18T00:04:05;67.45;;;48.47;;
72711;SDS011;60828;40.292;17.998;2022-12-18T00:06:33;64.32;;;46.33;;
72711;SDS011;60828;40.292;17.998;2022-12-18T00:09:01;63.55;;;46.45;;
72711;SDS011;60828;40.292;17.998;2022-12-18T00:11:29;63.85;;;46.33;;
72711;SDS011;60828;40.292;17.998;2022-12-18T00:13:56;61.63;;;45.20;;
72711;SDS011;60828;40.292;17.998;2022-12-18T00:16:23;64.13;;;46.97;;
72711;SDS011;60828;40.292;17.998;2022-12-18T00:18:51;61.22;;;44.17;;
72711;SDS011;60828;40.292;17.998;2022-12-18T00:21:19;59.10;;;42.80;;
72711;SDS011;60828;40.292;17.998;2022-12-18T00:23:46;58.58;;;43.38;;
72711;SDS011;60828;40.292;17.998;2022-12-18T00:26:15;61.42;;;44.47;;
72711;SDS011;60828;40.292;17.998;2022-12-18T00:28:45;56.20;;;41.55;;
72711;SDS011;60828;40.292;17.998;2022-12-18T00:31:14;58.57;;;41.67;;
72711;SDS011;60828;40.292;17.998;2022-12-18T00:33:41;56.80;;;42.10;;
72711;SDS011;60828;40.292;17.998;2022-12-18T00:36:08;56.40;;;39.72;;
72711;SDS011;60828;40.292;17.998;2022-12-18T00:38:36;62.05;;;42.80;;
72711;SDS011;60828;40.292;17.998;2022-12-18T00:41:02;61.28;;;43.60;;
72711;SDS011;60828;40.292;17.998;2022-12-18T00:43:28;59.63;;;42.63;;
72711;SDS011;60828;40.292;17.998;2022-12-18T00:45:54;58.53;;;41.28;;
72711;SDS011;60828;40.292;17.998;2022-12-18T00:48:19;56.63;;;40.77;;
72711;SDS011;60828;40.292;17.998;2022-12-18T00:50:47;56.90;;;40.97;;
72711;SDS011;60828;40.292;17.998;2022-12-18T00:53:13;56.03;;;40.83;;
72711;SDS011;60828;40.292;17.998;2022-12-18T00:55:39;54.37;;;40.20;;
72711;SDS011;60828;40.292;17.998;2022-12-18T00:58:05;55.30;;;40.20;;
72711;SDS011;60828;40.292;17.998;2022-12-18T01:00:32;55.63;;;39.15;;
72711;SDS011;60828;40.292;17.998;2022-12-18T01:02:58;52.97;;;39.03;;
72711;SDS011;60828;40.292;17.998;2022-12-18T01:05:23;52.20;;;37.03;;
72711;SDS011;60828;40.292;17.998;2022-12-18T01:07:48;51.57;;;33.63;;
72711;SDS011;60828;40.292;17.998;2022-12-18T01:10:14;47.03;;;33.08;;
72711;SDS011;60828;40.292;17.998;2022-12-18T01:12:40;50.23;;;32.50;;
72711;SDS011;60828;40.292;17.998;2022-12-18T01:15:06;43.58;;;31.75;;
72711;SDS011;60828;40.292;17.998;2022-12-18T01:17:32;45.35;;;30.95;;
72711;SDS011;60828;40.292;17.998;2022-12-18T01:19:58;42.17;;;29.70;;
72711;SDS011;60828;40.292;17.998;2022-12-18T01:22:24;41.07;;;28.43;;
72711;SDS011;60828;40.292;17.998;2022-12-18T01:24:49;38.55;;;27.52;;
72711;SDS011;60828;40.292;17.998;2022-12-18T01:27:15;38.23;;;27.00;;
72711;SDS011;60828;40.292;17.998;2022-12-18T01:29:40;39.22;;;25.35;;
72711;SDS011;60828;40.292;17.998;2022-12-18T01:32:06;35.63;;;25.37;;
72711;SDS011;60828;40.292;17.998;2022-12-18T01:34:31;33.63;;;23.70;;
72711;SDS011;60828;40.292;17.998;2022-12-18T01:36:57;34.70;;;24.13;;
72711;SDS011;60828;40.292;17.998;2022-12-18T01:39:22;31.90;;;22.27;;
72711;SDS011;60828;40.292;17.998;2022-12-18T01:41:48;33.83;;;21.67;;
72711;SDS011;60828;40.292;17.998;2022-12-18T01:50:06;37.73;;;23.13;;
72711;SDS011;60828;40.292;17.998;2022-12-18T01:52:41;33.88;;;22.17;;
72711;SDS011;60828;40.292;17.998;2022-12-18T01:55:09;31.30;;;21.05;;
72711;SDS011;60828;40.292;17.998;2022-12-18T01:57:36;33.17;;;19.95;;
72711;SDS011;60828;40.292;17.998;2022-12-18T02:00:07;27.73;;;17.85;;
72711;SDS011;60828;40.292;17.998;2022-12-18T02:02:36;27.17;;;16.55;;
72711;SDS011;60828;40.292;17.998;2022-12-18T02:05:03;24.65;;;15.30;;
72711;SDS011;60828;40.292;17.998;2022-12-18T02:07:32;23.05;;;15.63;;
72711;SDS011;60828;40.292;17.998;2022-12-18T02:11:05;22.00;;;14.45;;
72711;SDS011;60828;40.292;17.998;2022-12-18T02:13:14;23.55;;;14.95;;
72711;SDS011;60828;40.292;17.998;2022-12-18T02:18:41;22.40;;;14.45;;
72711;SDS011;60828;40.292;17.998;2022-12-18T02:21:19;22.95;;;14.48;;
72711;SDS011;60828;40.292;17.998;2022-12-18T02:26:34;24.70;;;15.20;;
72711;SDS011;60828;40.292;17.998;2022-12-18T02:29:07;24.27;;;15.73;;
72711;SDS011;60828;40.292;17.998;2022-12-18T02:31:39;23.10;;;14.85;;
72711;SDS011;60828;40.292;17.998;2022-12-18T02:34:10;23.53;;;14.80;;
72711;SDS011;60828;40.292;17.998;2022-12-18T02:36:38;24.23;;;14.50;;
72711;SDS011;60828;40.292;17.998;2022-12-18T02:39:05;23.85;;;14.70;;
72711;SDS011;60828;40.292;17.998;2022-12-18T02:41:34;23.15;;;13.80;;
72711;SDS011;60828;40.292;17.998;2022-12-18T02:44:01;23.60;;;14.50;;
72711;SDS011;60828;40.292;17.998;2022-12-18T02:56:54;24.20;;;15.10;;
72711;SDS011;60828;40.292;17.998;2022-12-18T03:02:29;31.67;;;17.33;;
72711;SDS011;60828;40.292;17.998;2022-12-18T03:05:13;26.20;;;15.90;;
72711;SDS011;60828;40.292;17.998;2022-12-18T03:07:45;24.98;;;15.13;;
72711;SDS011;60828;40.292;17.998;2022-12-18T03:10:17;26.63;;;17.40;;
72711;SDS011;60828;40.292;17.998;2022-12-18T03:12:52;31.63;;;18.95;;
72711;SDS011;60828;40.292;17.998;2022-12-18T03:15:27;28.73;;;17.27;;
72711;SDS011;60828;40.292;17.998;2022-12-18T03:18:01;26.77;;;16.33;;
72711;SDS011;60828;40.292;17.998;2022-12-18T03:20:30;26.25;;;15.57;;
72711;SDS011;60828;40.292;17.998;2022-12-18T03:23:09;25.92;;;15.43;;
72711;SDS011;60828;40.292;17.998;2022-12-18T03:25:39;26.50;;;15.27;;
72711;SDS011;60828;40.292;17.998;2022-12-18T03:28:07;23.17;;;15.57;;
72711;SDS011;60828;40.292;17.998;2022-12-18T03:30:37;23.33;;;15.05;;
72711;SDS011;60828;40.292;17.998;2022-12-18T03:33:07;24.75;;;16.05;;
72711;SDS011;60828;40.292;17.998;2022-12-18T03:35:39;23.88;;;15.00;;
72711;SDS011;60828;40.292;17.998;2022-12-18T03:38:07;22.35;;;15.30;;
72711;SDS011;60828;40.292;17.998;2022-12-18T03:46:02;21.93;;;13.83;;
72711;SDS011;60828;40.292;17.998;2022-12-18T03:48:36;23.90;;;14.52;;
72711;SDS011;60828;40.292;17.998;2022-12-18T03:51:12;20.88;;;13.93;;
72711;SDS011;60828;40.292;17.998;2022-12-18T03:53:44;20.55;;;12.25;;
72711;SDS011;60828;40.292;17.998;2022-12-18T03:56:17;19.48;;;12.25;;
72711;SDS011;60828;40.292;17.998;2022-12-18T03:58:44;19.55;;;11.23;;
72711;SDS011;60828;40.292;17.998;2022-12-18T04:01:12;19.67;;;11.52;;
72711;SDS011;60828;40.292;17.998;2022-12-18T04:03:39;18.35;;;11.50;;
72711;SDS011;60828;40.292;17.998;2022-12-18T04:06:07;20.00;;;10.77;;
72711;SDS011;60828;40.292;17.998;2022-12-18T04:08:34;18.95;;;11.23;;
72711;SDS011;60828;40.292;17.998;2022-12-18T04:11:00;17.63;;;10.63;;
72711;SDS011;60828;40.292;17.998;2022-12-18T04:13:32;17.58;;;10.85;;
72711;SDS011;60828;40.292;17.998;2022-12-18T04:16:00;17.20;;;10.05;;
72711;SDS011;60828;40.292;17.998;2022-12-18T04:18:26;16.48;;;9.75;;
72711;SDS011;60828;40.292;17.998;2022-12-18T04:20:52;16.77;;;9.77;;
72711;SDS011;60828;40.292;17.998;2022-12-18T04:23:17;15.37;;;9.80;;
72711;SDS011;60828;40.292;17.998;2022-12-18T04:25:43;18.30;;;9.53;;
72711;SDS011;60828;40.292;17.998;2022-12-18T04:28:08;17.90;;;9.73;;
72711;SDS011;60828;40.292;17.998;2022-12-18T04:30:33;17.90;;;9.30;;
72711;SDS011;60828;40.292;17.998;2022-12-18T04:32:59;16.67;;;9.40;;
72711;SDS011;60828;40.292;17.998;2022-12-18T04:35:24;17.97;;;9.63;;
72711;SDS011;60828;40.292;17.998;2022-12-18T04:37:50;16.73;;;9.23;;
72711;SDS011;60828;40.292;17.998;2022-12-18T04:40:15;14.57;;;8.82;;
72711;SDS011;60828;40.292;17.998;2022-12-18T04:42:41;14.13;;;8.47;;
72711;SDS011;60828;40.292;17.998;2022-12-18T04:45:07;13.50;;;8.00;;
72711;SDS011;60828;40.292;17.998;2022-12-18T04:47:33;14.75;;;8.48;;
72711;SDS011;60828;40.292;17.998;2022-12-18T04:49:58;13.23;;;7.60;;
72711;SDS011;60828;40.292;17.998;2022-12-18T04:52:24;13.45;;;7.57;;
72711;SDS011;60828;40.292;17.998;2022-12-18T04:54:49;15.67;;;9.00;;
72711;SDS011;60828;40.292;17.998;2022-12-18T04:57:15;17.25;;;8.75;;
72711;SDS011;60828;40.292;17.998;2022-12-18T04:59:40;12.47;;;8.03;;
72711;SDS011;60828;40.292;17.998;2022-12-18T05:02:06;14.50;;;7.63;;
72711;SDS011;60828;40.292;17.998;2022-12-18T05:04:31;14.37;;;7.60;;
72711;SDS011;60828;40.292;17.998;2022-12-18T05:06:57;14.85;;;9.65;;
72711;SDS011;60828;40.292;17.998;2022-12-18T05:09:22;12.95;;;7.25;;
72711;SDS011;60828;40.292;17.998;2022-12-18T05:11:48;14.17;;;7.70;;
72711;SDS011;60828;40.292;17.998;2022-12-18T05:14:14;15.45;;;8.38;;
72711;SDS011;60828;40.292;17.998;2022-12-18T05:16:40;13.32;;;8.55;;
72711;SDS011;60828;40.292;17.998;2022-12-18T05:19:05;14.50;;;8.70;;
72711;SDS011;60828;40.292;17.998;2022-12-18T05:21:31;16.20;;;9.80;;
72711;SDS011;60828;40.292;17.998;2022-12-18T05:23:56;14.00;;;8.53;;
72711;SDS011;60828;40.292;17.998;2022-12-18T05:26:22;13.80;;;7.68;;
72711;SDS011;60828;40.292;17.998;2022-12-18T05:28:47;13.93;;;7.33;;
72711;SDS011;60828;40.292;17.998;2022-12-18T05:31:13;14.77;;;7.83;;
72711;SDS011;60828;40.292;17.998;2022-12-18T05:33:38;12.38;;;7.30;;
72711;SDS011;60828;40.292;17.998;2022-12-18T05:36:05;13.73;;;8.23;;
72711;SDS011;60828;40.292;17.998;2022-12-18T05:38:33;15.23;;;8.20;;
72711;SDS011;60828;40.292;17.998;2022-12-18T05:41:01;14.60;;;7.93;;
72711;SDS011;60828;40.292;17.998;2022-12-18T05:43:27;13.82;;;7.55;;
72711;SDS011;60828;40.292;17.998;2022-12-18T05:45:53;14.38;;;7.10;;
72711;SDS011;60828;40.292;17.998;2022-12-18T05:48:19;15.30;;;8.48;;
72711;SDS011;60828;40.292;17.998;2022-12-18T05:50:46;17.17;;;9.60;;
72711;SDS011;60828;40.292;17.998;2022-12-18T05:53:14;18.83;;;9.80;;
72711;SDS011;60828;40.292;17.998;2022-12-18T05:55:41;15.55;;;8.95;;
72711;SDS011;60828;40.292;17.998;2022-12-18T05:58:08;16.00;;;8.00;;
72711;SDS011;60828;40.292;17.998;2022-12-18T06:00:36;12.95;;;7.35;;
72711;SDS011;60828;40.292;17.998;2022-12-18T06:03:05;14.07;;;7.32;;
72711;SDS011;60828;40.292;17.998;2022-12-18T06:05:49;16.60;;;8.93;;
72711;SDS011;60828;40.292;17.998;2022-12-18T06:08:15;16.88;;;9.45;;
72711;SDS011;60828;40.292;17.998;2022-12-18T06:10:40;15.83;;;9.00;;
72711;SDS011;60828;40.292;17.998;2022-12-18T06:13:07;15.35;;;8.57;;
72711;SDS011;60828;40.292;17.998;2022-12-18T06:15:35;13.07;;;7.35;;
72711;SDS011;60828;40.292;17.998;2022-12-18T06:18:02;11.00;;;7.00;;
72711;SDS011;60828;40.292;17.998;2022-12-18T06:20:27;14.87;;;7.13;;
72711;SDS011;60828;40.292;17.998;2022-12-18T06:22:53;14.13;;;7.17;;
72711;SDS011;60828;40.292;17.998;2022-12-18T06:25:18;12.73;;;6.60;;
72711;SDS011;60828;40.292;17.998;2022-12-18T06:27:44;13.73;;;7.17;;
72711;SDS011;60828;40.292;17.998;2022-12-18T06:30:09;12.77;;;7.00;;
72711;SDS011;60828;40.292;17.998;2022-12-18T06:32:35;13.65;;;7.43;;
72711;SDS011;60828;40.292;17.998;2022-12-18T06:35:01;12.10;;;7.07;;
72711;SDS011;60828;40.292;17.998;2022-12-18T06:37:30;12.93;;;6.90;;
72711;SDS011;60828;40.292;17.998;2022-12-18T06:39:56;14.05;;;7.40;;
72711;SDS011;60828;40.292;17.998;2022-12-18T06:42:22;16.53;;;7.90;;
72711;SDS011;60828;40.292;17.998;2022-12-18T06:44:48;14.52;;;8.95;;
72711;SDS011;60828;40.292;17.998;2022-12-18T06:47:14;17.50;;;9.20;;
72711;SDS011;60828;40.292;17.998;2022-12-18T06:49:39;16.70;;;9.20;;
72711;SDS011;60828;40.292;17.998;2022-12-18T06:52:05;16.20;;;9.17;;
72711;SDS011;60828;40.292;17.998;2022-12-18T06:54:30;19.83;;;10.48;;
72711;SDS011;60828;40.292;17.998;2022-12-18T06:56:56;15.13;;;8.87;;
72711;SDS011;60828;40.292;17.998;2022-12-18T06:59:21;11.67;;;7.73;;
72711;SDS011;60828;40.292;17.998;2022-12-18T07:01:47;17.57;;;8.50;;
72711;SDS011;60828;40.292;17.998;2022-12-18T07:04:12;14.83;;;9.77;;
72711;SDS011;60828;40.292;17.998;2022-12-18T07:06:38;15.87;;;8.57;;
72711;SDS011;60828;40.292;17.998;2022-12-18T07:09:03;15.40;;;8.70;;
72711;SDS011;60828;40.292;17.998;2022-12-18T07:11:29;18.33;;;10.10;;
72711;SDS011;60828;40.292;17.998;2022-12-18T07:13:57;22.90;;;13.00;;
72711;SDS011;60828;40.292;17.998;2022-12-18T07:16:22;13.70;;;8.07;;
72711;SDS011;60828;40.292;17.998;2022-12-18T07:18:48;12.80;;;8.50;;
72711;SDS011;60828;40.292;17.998;2022-12-18T07:21:14;16.50;;;8.40;;
72711;SDS011;60828;40.292;17.998;2022-12-18T07:23:41;13.73;;;7.80;;
72711;SDS011;60828;40.292;17.998;2022-12-18T07:26:08;12.75;;;6.32;;
72711;SDS011;60828;40.292;17.998;2022-12-18T07:28:36;12.70;;;6.37;;
72711;SDS011;60828;40.292;17.998;2022-12-18T07:31:03;10.82;;;5.20;;
72711;SDS011;60828;40.292;17.998;2022-12-18T07:33:33;10.43;;;4.82;;
72711;SDS011;60828;40.292;17.998;2022-12-18T07:35:59;10.05;;;4.40;;
72711;SDS011;60828;40.292;17.998;2022-12-18T07:38:26;8.70;;;3.87;;
72711;SDS011;60828;40.292;17.998;2022-12-18T07:40:52;9.13;;;3.83;;
72711;SDS011;60828;40.292;17.998;2022-12-18T07:43:17;10.07;;;4.55;;
72711;SDS011;60828;40.292;17.998;2022-12-18T07:45:43;11.17;;;5.20;;
72711;SDS011;60828;40.292;17.998;2022-12-18T07:48:09;11.93;;;7.28;;
72711;SDS011;60828;40.292;17.998;2022-12-18T07:50:35;12.82;;;7.38;;
72711;SDS011;60828;40.292;17.998;2022-12-18T07:53:00;11.02;;;5.97;;
72711;SDS011;60828;40.292;17.998;2022-12-18T07:55:29;8.30;;;4.00;;
72711;SDS011;60828;40.292;17.998;2022-12-18T07:57:55;9.07;;;3.65;;
72711;SDS011;60828;40.292;17.998;2022-12-18T08:00:20;8.40;;;5.10;;
72711;SDS011;60828;40.292;17.998;2022-12-18T08:02:46;6.95;;;3.90;;
72711;SDS011;60828;40.292;17.998;2022-12-18T08:05:11;7.47;;;3.10;;
72711;SDS011;60828;40.292;17.998;2022-12-18T08:07:38;8.57;;;3.05;;
72711;SDS011;60828;40.292;17.998;2022-12-18T08:10:04;8.32;;;2.90;;
72711;SDS011;60828;40.292;17.998;2022-12-18T08:12:29;8.38;;;3.58;;
72711;SDS011;60828;40.292;17.998;2022-12-18T08:14:55;7.57;;;2.90;;
72711;SDS011;60828;40.292;17.998;2022-12-18T08:17:20;8.90;;;2.90;;
72711;SDS011;60828;40.292;17.998;2022-12-18T08:19:46;8.03;;;2.93;;
72711;SDS011;60828;40.292;17.998;2022-12-18T08:22:11;9.27;;;3.28;;
72711;SDS011;60828;40.292;17.998;2022-12-18T08:24:37;8.63;;;3.17;;
72711;SDS011;60828;40.292;17.998;2022-12-18T08:27:02;6.60;;;2.50;;
72711;SDS011;60828;40.292;17.998;2022-12-18T08:29:28;10.60;;;3.20;;
72711;SDS011;60828;40.292;17.998;2022-12-18T08:31:55;8.60;;;2.90;;
72711;SDS011;60828;40.292;17.998;2022-12-18T08:34:21;9.50;;;2.80;;
72711;SDS011;60828;40.292;17.998;2022-12-18T08:36:46;11.07;;;3.08;;
72711;SDS011;60828;40.292;17.998;2022-12-18T08:39:12;7.73;;;2.73;;
72711;SDS011;60828;40.292;17.998;2022-12-18T08:41:37;8.43;;;3.17;;
72711;SDS011;60828;40.292;17.998;2022-12-18T08:44:03;7.85;;;3.00;;
72711;SDS011;60828;40.292;17.998;2022-12-18T08:46:47;10.03;;;3.20;;
72711;SDS011;60828;40.292;17.998;2022-12-18T08:49:12;8.67;;;3.03;;
72711;SDS011;60828;40.292;17.998;2022-12-18T08:51:38;10.18;;;2.45;;
72711;SDS011;60828;40.292;17.998;2022-12-18T08:54:04;8.57;;;2.30;;
72711;SDS011;60828;40.292;17.998;2022-12-18T08:56:30;8.70;;;2.80;;
72711;SDS011;60828;40.292;17.998;2022-12-18T08:58:56;9.10;;;3.28;;
72711;SDS011;60828;40.292;17.998;2022-12-18T09:01:22;7.85;;;2.10;;
72711;SDS011;60828;40.292;17.998;2022-12-18T09:03:50;7.97;;;2.07;;
72711;SDS011;60828;40.292;17.998;2022-12-18T09:06:16;7.45;;;2.40;;
72711;SDS011;60828;40.292;17.998;2022-12-18T09:08:43;7.67;;;2.03;;
72711;SDS011;60828;40.292;17.998;2022-12-18T09:11:13;13.60;;;2.42;;
72711;SDS011;60828;40.292;17.998;2022-12-18T09:13:43;7.83;;;2.50;;
72711;SDS011;60828;40.292;17.998;2022-12-18T09:16:09;7.73;;;2.40;;
72711;SDS011;60828;40.292;17.998;2022-12-18T09:18:34;8.63;;;2.35;;
72711;SDS011;60828;40.292;17.998;2022-12-18T09:21:06;7.57;;;2.00;;
72711;SDS011;60828;40.292;17.998;2022-12-18T09:23:32;7.22;;;2.08;;
72711;SDS011;60828;40.292;17.998;2022-12-18T09:25:58;7.07;;;2.10;;
72711;SDS011;60828;40.292;17.998;2022-12-18T09:28:24;7.28;;;2.42;;
72711;SDS011;60828;40.292;17.998;2022-12-18T09:30:50;9.93;;;3.80;;
72711;SDS011;60828;40.292;17.998;2022-12-18T09:33:16;11.70;;;7.40;;
72711;SDS011;60828;40.292;17.998;2022-12-18T09:35:42;12.35;;;4.18;;
72711;SDS011;60828;40.292;17.998;2022-12-18T09:38:16;8.20;;;3.10;;
72711;SDS011;60828;40.292;17.998;2022-12-18T09:40:44;9.52;;;3.65;;
72711;SDS011;60828;40.292;17.998;2022-12-18T09:43:14;9.23;;;3.53;;
72711;SDS011;60828;40.292;17.998;2022-12-18T09:45:45;10.82;;;4.07;;
72711;SDS011;60828;40.292;17.998;2022-12-18T09:48:25;11.32;;;3.28;;
72711;SDS011;60828;40.292;17.998;2022-12-18T09:50:55;12.48;;;3.90;;
72711;SDS011;60828;40.292;17.998;2022-12-18T09:53:26;7.50;;;3.22;;
72711;SDS011;60828;40.292;17.998;2022-12-18T09:55:55;8.30;;;3.10;;
72711;SDS011;60828;40.292;17.998;2022-12-18T09:58:27;10.15;;;3.40;;
72711;SDS011;60828;40.292;17.998;2022-12-18T10:00:56;9.40;;;2.80;;
72711;SDS011;60828;40.292;17.998;2022-12-18T10:03:22;9.00;;;3.60;;
72711;SDS011;60828;40.292;17.998;2022-12-18T10:08:38;6.07;;;2.40;;
72711;SDS011;60828;40.292;17.998;2022-12-18T10:11:38;8.75;;;2.80;;
72711;SDS011;60828;40.292;17.998;2022-12-18T10:14:30;11.45;;;4.30;;
72711;SDS011;60828;40.292;17.998;2022-12-18T10:19:57;9.40;;;2.80;;
72711;SDS011;60828;40.292;17.998;2022-12-18T10:28:35;10.23;;;2.90;;
72711;SDS011;60828;40.292;17.998;2022-12-18T10:31:04;8.27;;;2.65;;
72711;SDS011;60828;40.292;17.998;2022-12-18T10:33:40;8.75;;;2.90;;
72711;SDS011;60828;40.292;17.998;2022-12-18T10:36:06;6.83;;;2.47;;
72711;SDS011;60828;40.292;17.998;2022-12-18T10:38:32;6.97;;;2.50;;
72711;SDS011;60828;40.292;17.998;2022-12-18T10:56:45;9.80;;;3.40;;
72711;SDS011;60828;40.292;17.998;2022-12-18T10:59:12;7.82;;;2.70;;
72711;SDS011;60828;40.292;17.998;2022-12-18T11:01:53;7.23;;;2.50;;
72711;SDS011;60828;40.292;17.998;2022-12-18T11:09:23;9.00;;;3.43;;
72711;SDS011;60828;40.292;17.998;2022-12-18T11:11:55;8.50;;;3.33;;
72711;SDS011;60828;40.292;17.998;2022-12-18T11:14:24;8.63;;;2.93;;
72711;SDS011;60828;40.292;17.998;2022-12-18T11:16:57;9.02;;;3.72;;
72711;SDS011;60828;40.292;17.998;2022-12-18T11:22:00;11.95;;;4.03;;
72711;SDS011;60828;40.292;17.998;2022-12-18T11:24:35;10.50;;;4.13;;
72711;SDS011;60828;40.292;17.998;2022-12-18T11:27:05;9.43;;;2.70;;
72711;SDS011;60828;40.292;17.998;2022-12-18T11:29:40;9.57;;;3.00;;
72711;SDS011;60828;40.292;17.998;2022-12-18T11:32:19;15.17;;;4.63;;
72711;SDS011;60828;40.292;17.998;2022-12-18T11:35:00;10.50;;;4.68;;
72711;SDS011;60828;40.292;17.998;2022-12-18T11:37:36;12.93;;;4.80;;
72711;SDS011;60828;40.292;17.998;2022-12-18T11:40:18;8.93;;;4.03;;
72711;SDS011;60828;40.292;17.998;2022-12-18T11:42:50;10.17;;;4.80;;
72711;SDS011;60828;40.292;17.998;2022-12-18T11:45:29;9.05;;;3.88;;
72711;SDS011;60828;40.292;17.998;2022-12-18T11:50:50;7.40;;;3.20;;
72711;SDS011;60828;40.292;17.998;2022-12-18T11:53:20;8.97;;;3.67;;
72711;SDS011;60828;40.292;17.998;2022-12-18T11:55:51;8.13;;;3.40;;
72711;SDS011;60828;40.292;17.998;2022-12-18T12:01:30;8.33;;;3.20;;
72711;SDS011;60828;40.292;17.998;2022-12-18T12:12:21;9.02;;;3.28;;
72711;SDS011;60828;40.292;17.998;2022-12-18T12:14:57;8.50;;;3.63;;
72711;SDS011;60828;40.292;17.998;2022-12-18T12:17:54;15.57;;;4.68;;
72711;SDS011;60828;40.292;17.998;2022-12-18T12:20:38;9.73;;;4.72;;
72711;SDS011;60828;40.292;17.998;2022-12-18T12:39:59;7.38;;;2.80;;
72711;SDS011;60828;40.292;17.998;2022-12-18T12:42:34;8.77;;;2.63;;
72711;SDS011;60828;40.292;17.998;2022-12-18T12:45:25;7.80;;;2.87;;
72711;SDS011;60828;40.292;17.998;2022-12-18T12:47:58;7.97;;;2.67;;
72711;SDS011;60828;40.292;17.998;2022-12-18T12:50:26;7.50;;;2.92;;
72711;SDS011;60828;40.292;17.998;2022-12-18T12:52:53;7.10;;;2.35;;
72711;SDS011;60828;40.292;17.998;2022-12-18T12:55:23;6.68;;;2.88;;
72711;SDS011;60828;40.292;17.998;2022-12-18T13:03:43;10.02;;;4.10;;
72711;SDS011;60828;40.292;17.998;2022-12-18T13:09:14;9.25;;;4.28;;
72711;SDS011;60828;40.292;17.998;2022-12-18T13:11:40;8.77;;;3.25;;
72711;SDS011;60828;40.292;17.998;2022-12-18T13:19:49;7.85;;;3.67;;
72711;SDS011;60828;40.292;17.998;2022-12-18T13:22:28;8.88;;;3.30;;
72711;SDS011;60828;40.292;17.998;2022-12-18T13:24:57;12.68;;;5.13;;
72711;SDS011;60828;40.292;17.998;2022-12-18T13:30:50;7.23;;;3.10;;
72711;SDS011;60828;40.292;17.998;2022-12-18T13:35:53;10.90;;;4.68;;
72711;SDS011;60828;40.292;17.998;2022-12-18T13:38:40;15.67;;;7.87;;
72711;SDS011;60828;40.292;17.998;2022-12-18T13:43:51;11.00;;;4.72;;
72711;SDS011;60828;40.292;17.998;2022-12-18T13:51:42;12.15;;;4.78;;
72711;SDS011;60828;40.292;17.998;2022-12-18T13:56:59;12.25;;;4.60;;
72711;SDS011;60828;40.292;17.998;2022-12-18T13:59:26;10.30;;;4.05;;
72711;SDS011;60828;40.292;17.998;2022-12-18T14:02:00;11.97;;;4.43;;
72711;SDS011;60828;40.292;17.998;2022-12-18T14:04:35;9.85;;;3.60;;
72711;SDS011;60828;40.292;17.998;2022-12-18T14:17:11;10.43;;;3.60;;
72711;SDS011;60828;40.292;17.998;2022-12-18T14:19:42;9.93;;;3.90;;
72711;SDS011;60828;40.292;17.998;2022-12-18T14:22:17;9.95;;;2.78;;
72711;SDS011;60828;40.292;17.998;2022-12-18T14:25:37;12.18;;;3.67;;
72711;SDS011;60828;40.292;17.998;2022-12-18T14:27:41;9.82;;;4.05;;
72711;SDS011;60828;40.292;17.998;2022-12-18T14:30:23;16.60;;;7.37;;
72711;SDS011;60828;40.292;17.998;2022-12-18T14:33:00;11.35;;;3.78;;
72711;SDS011;60828;40.292;17.998;2022-12-18T14:35:30;11.03;;;4.40;;
72711;SDS011;60828;40.292;17.998;2022-12-18T14:40:43;8.38;;;3.45;;
72711;SDS011;60828;40.292;17.998;2022-12-18T14:43:12;9.73;;;4.33;;
72711;SDS011;60828;40.292;17.998;2022-12-18T14:48:46;8.70;;;3.40;;
72711;SDS011;60828;40.292;17.998;2022-12-18T14:56:00;9.07;;;3.03;;
72711;SDS011;60828;40.292;17.998;2022-12-18T14:58:26;11.18;;;3.50;;
72711;SDS011;60828;40.292;17.998;2022-12-18T15:00:51;7.53;;;3.30;;
72711;SDS011;60828;40.292;17.998;2022-12-18T15:03:18;9.17;;;3.60;;
72711;SDS011;60828;40.292;17.998;2022-12-18T15:05:45;9.38;;;3.80;;
72711;SDS011;60828;40.292;17.998;2022-12-18T15:08:24;8.03;;;3.50;;
72711;SDS011;60828;40.292;17.998;2022-12-18T17:53:10;12.30;;;7.00;;
72711;SDS011;60828;40.292;17.998;2022-12-18T17:55:36;16.33;;;6.32;;
72711;SDS011;60828;40.292;17.998;2022-12-18T17:58:02;14.30;;;6.33;;
72711;SDS011;60828;40.292;17.998;2022-12-18T18:00:27;16.27;;;6.07;;
72711;SDS011;60828;40.292;17.998;2022-12-18T18:02:53;11.30;;;4.90;;
72711;SDS011;60828;40.292;17.998;2022-12-18T18:05:19;15.27;;;6.55;;
72711;SDS011;60828;40.292;17.998;2022-12-18T18:07:45;40.10;;;18.23;;
72711;SDS011;60828;40.292;17.998;2022-12-18T18:10:10;20.00;;;9.63;;
72711;SDS011;60828;40.292;17.998;2022-12-18T18:12:36;24.37;;;11.97;;
72711;SDS011;60828;40.292;17.998;2022-12-18T18:15:20;16.30;;;9.43;;
72711;SDS011;60828;40.292;17.998;2022-12-18T18:17:46;17.08;;;9.00;;
72711;SDS011;60828;40.292;17.998;2022-12-18T18:20:11;27.43;;;13.17;;
72711;SDS011;60828;40.292;17.998;2022-12-18T18:22:39;34.95;;;16.65;;
72711;SDS011;60828;40.292;17.998;2022-12-18T18:25:04;22.40;;;10.37;;
72711;SDS011;60828;40.292;17.998;2022-12-18T18:27:30;16.50;;;7.03;;
72711;SDS011;60828;40.292;17.998;2022-12-18T18:29:55;15.67;;;8.03;;
72711;SDS011;60828;40.292;17.998;2022-12-18T18:32:21;21.93;;;11.17;;
72711;SDS011;60828;40.292;17.998;2022-12-18T18:34:47;24.63;;;12.00;;
72711;SDS011;60828;40.292;17.998;2022-12-18T18:37:12;24.08;;;13.45;;
72711;SDS011;60828;40.292;17.998;2022-12-18T18:39:38;18.17;;;6.87;;
72711;SDS011;60828;40.292;17.998;2022-12-18T18:42:03;12.10;;;5.28;;
72711;SDS011;60828;40.292;17.998;2022-12-18T18:44:29;13.20;;;4.90;;
72711;SDS011;60828;40.292;17.998;2022-12-18T18:46:55;10.17;;;4.17;;
72711;SDS011;60828;40.292;17.998;2022-12-18T18:49:21;12.15;;;4.25;;
72711;SDS011;60828;40.292;17.998;2022-12-18T18:51:51;10.90;;;4.10;;
72711;SDS011;60828;40.292;17.998;2022-12-18T18:54:17;11.68;;;4.10;;
72711;SDS011;60828;40.292;17.998;2022-12-18T18:56:44;10.85;;;4.00;;
72711;SDS011;60828;40.292;17.998;2022-12-18T18:59:10;10.97;;;3.40;;
72711;SDS011;60828;40.292;17.998;2022-12-18T19:01:36;10.20;;;4.15;;
72711;SDS011;60828;40.292;17.998;2022-12-18T19:04:02;12.63;;;5.75;;
72711;SDS011;60828;40.292;17.998;2022-12-18T19:06:28;9.25;;;4.18;;
72711;SDS011;60828;40.292;17.998;2022-12-18T19:08:54;15.40;;;4.20;;
72711;SDS011;60828;40.292;17.998;2022-12-18T19:11:20;13.73;;;4.07;;
72711;SDS011;60828;40.292;17.998;2022-12-18T19:14:07;9.23;;;3.85;;
72711;SDS011;60828;40.292;17.998;2022-12-18T19:16:34;11.07;;;3.90;;
72711;SDS011;60828;40.292;17.998;2022-12-18T19:19:00;11.88;;;3.88;;
72711;SDS011;60828;40.292;17.998;2022-12-18T19:21:26;12.03;;;4.00;;
72711;SDS011;60828;40.292;17.998;2022-12-18T19:23:51;8.73;;;3.90;;
72711;SDS011;60828;40.292;17.998;2022-12-18T19:26:17;11.33;;;4.63;;
72711;SDS011;60828;40.292;17.998;2022-12-18T19:28:44;10.98;;;4.40;;
72711;SDS011;60828;40.292;17.998;2022-12-18T19:31:11;10.83;;;4.60;;
72711;SDS011;60828;40.292;17.998;2022-12-18T19:33:39;12.48;;;4.47;;
72711;SDS011;60828;40.292;17.998;2022-12-18T19:36:23;18.48;;;9.80;;
72711;SDS011;60828;40.292;17.998;2022-12-18T19:38:51;26.55;;;12.07;;
72711;SDS011;60828;40.292;17.998;2022-12-18T19:41:18;21.43;;;8.77;;
72711;SDS011;60828;40.292;17.998;2022-12-18T19:43:45;19.00;;;8.05;;